createdAt,value
2023-04-13T00:00:21.539Z,0.63
2023-04-13T00:05:26.125Z,0.47
2023-04-13T00:10:28.841Z,0.50
2023-04-13T00:15:31.721Z,0.50
2023-04-13T00:20:35.985Z,0.50
2023-04-13T00:25:38.596Z,0.50
2023-04-13T00:30:41.738Z,0.40
2023-04-13T00:35:45.963Z,0.38
2023-04-13T00:40:48.739Z,0.40
2023-04-13T00:45:51.410Z,0.40
2023-04-13T00:50:55.424Z,0.50
2023-04-13T00:55:58.126Z,0.35
2023-04-13T01:01:00.721Z,0.30
2023-04-13T01:06:10.140Z,0.30
2023-04-13T01:11:14.485Z,0.32
2023-04-13T01:16:19.939Z,0.40
2023-04-13T01:21:26.178Z,0.38
2023-04-13T01:26:34.579Z,0.30
2023-04-13T01:31:38.864Z,0.40
2023-04-13T01:36:41.672Z,0.40
2023-04-13T01:41:45.471Z,0.50
2023-04-13T01:46:54.253Z,0.50
2023-04-13T01:52:23.376Z,0.30
2023-04-13T01:57:26.310Z,0.43
2023-04-13T02:02:30.764Z,0.50
2023-04-13T02:07:34.593Z,0.50
2023-04-13T02:12:37.512Z,0.40
2023-04-13T02:17:44.849Z,0.52
2023-04-13T02:22:47.990Z,0.35
2023-04-13T02:27:51.491Z,0.50
2023-04-13T02:32:56.623Z,0.40
2023-04-13T02:37:59.487Z,0.55
2023-04-13T02:43:02.824Z,0.30
2023-04-13T02:48:09.616Z,0.47
2023-04-13T02:53:13.135Z,1.55
2023-04-13T02:58:21.237Z,0.75
2023-04-13T03:03:30.896Z,0.50
2023-04-13T03:08:34.992Z,0.40
2023-04-13T03:13:44.353Z,0.50
2023-04-13T03:18:48.541Z,1.23
2023-04-13T03:23:51.448Z,0.60
2023-04-13T03:28:54.674Z,0.40
2023-04-13T03:33:59.430Z,0.40
2023-04-13T03:39:02.663Z,0.40
2023-04-13T03:44:10.662Z,0.28
2023-04-13T03:49:16.586Z,0.40
2023-04-13T03:54:19.384Z,0.38
2023-04-13T03:59:22.459Z,0.50
2023-04-13T04:04:27.287Z,0.40
2023-04-13T04:09:30.053Z,0.40
2023-04-13T04:14:32.719Z,0.40
2023-04-13T04:19:44.541Z,0.50
2023-04-13T04:24:47.310Z,0.52
2023-04-13T04:29:51.715Z,0.40
2023-04-13T04:35:12.324Z,0.63
2023-04-13T04:40:22.452Z,0.80
2023-04-13T04:45:28.013Z,0.22
2023-04-13T04:50:34.898Z,0.38
2023-04-13T04:55:49.889Z,0.32
2023-04-13T05:01:10.716Z,0.60
2023-04-13T05:06:16.527Z,0.50
2023-04-13T05:11:20.600Z,0.45
2023-04-13T05:16:24.649Z,0.40
2023-04-13T05:21:30.511Z,0.38
2023-04-13T05:26:35.405Z,0.50
2023-04-13T05:31:38.245Z,0.60
2023-04-13T05:36:42.416Z,0.45
2023-04-13T05:41:48.796Z,0.60
2023-04-13T05:46:53.234Z,0.40
2023-04-13T05:51:57.340Z,0.70
2023-04-13T05:57:09.616Z,0.70
2023-04-13T06:02:16.918Z,0.55
2023-04-13T06:07:30.283Z,0.82
2023-04-13T06:12:33.588Z,0.60
2023-04-13T06:17:36.650Z,0.50
2023-04-13T06:22:40.790Z,0.70
2023-04-13T06:27:44.068Z,0.75
2023-04-13T06:32:46.998Z,0.47
2023-04-13T06:37:54.063Z,0.73
2023-04-13T06:43:02.672Z,0.50
2023-04-13T06:48:14.679Z,0.60
2023-04-13T06:53:19.466Z,0.70
2023-04-13T06:58:23.323Z,0.70
2023-04-13T07:03:26.376Z,0.98
2023-04-13T07:08:32.121Z,0.50
2023-04-13T07:13:36.015Z,0.60
2023-04-13T07:18:40.149Z,0.77
2023-04-13T07:23:44.946Z,1.13
2023-04-13T07:28:48.579Z,0.70
2023-04-13T07:33:51.344Z,0.70
2023-04-13T07:39:01.945Z,1.42
2023-04-13T07:44:07.217Z,1.25
2023-04-13T07:49:10.508Z,0.60
2023-04-13T07:54:16.910Z,0.93
2023-04-13T07:59:21.316Z,0.82
2023-04-13T08:04:24.771Z,0.70
2023-04-13T08:09:29.504Z,0.65
2023-04-13T08:14:32.285Z,0.73
2023-04-13T08:19:35.350Z,0.52
2023-04-13T08:24:40.514Z,0.50
2023-04-13T08:29:43.553Z,0.80
2023-04-13T08:34:46.605Z,0.50
2023-04-13T08:39:56.663Z,0.70
2023-04-13T08:45:00.464Z,0.40
2023-04-13T08:50:04.239Z,0.50
2023-04-13T08:55:15.727Z,0.68
2023-04-13T09:00:22.001Z,0.57
2023-04-13T09:05:27.770Z,0.50
2023-04-13T09:10:36.410Z,0.52
2023-04-13T09:15:41.466Z,0.60
2023-04-13T09:21:04.456Z,0.50
2023-04-13T09:26:09.981Z,0.70
2023-04-13T09:31:14.196Z,0.73
2023-04-13T09:36:17.812Z,0.50
2023-04-13T09:41:30.380Z,0.77
2023-04-13T09:46:33.148Z,0.85
2023-04-13T09:51:36.737Z,0.60
2023-04-13T09:56:48.255Z,0.43
2023-04-13T10:01:52.452Z,0.60
2023-04-13T10:06:55.499Z,0.55
2023-04-13T10:12:00.070Z,0.60
2023-04-13T10:17:12.755Z,0.70
2023-04-13T10:22:16.642Z,0.70
2023-04-13T10:27:21.618Z,0.70
2023-04-13T10:32:25.328Z,0.60
2023-04-13T10:37:28.879Z,0.68
2023-04-13T10:42:51.814Z,0.60
2023-04-13T10:47:58.616Z,0.50
2023-04-13T10:53:03.775Z,0.70
2023-04-13T10:58:16.249Z,0.63
2023-04-13T11:03:19.330Z,0.60
2023-04-13T11:08:22.270Z,0.60
2023-04-13T11:13:26.762Z,0.95
2023-04-13T11:18:29.757Z,0.65
2023-04-13T11:23:34.610Z,2.83
2023-04-13T11:28:40.335Z,1.00
2023-04-13T11:33:44.564Z,0.60
2023-04-13T11:38:49.582Z,0.70
2023-04-13T11:43:53.988Z,0.65
2023-04-13T11:48:57.213Z,0.65
2023-04-13T11:54:00.039Z,0.63
2023-04-13T11:59:03.961Z,0.50
2023-04-13T12:09:15.653Z,2.42
2023-04-13T12:19:28.229Z,1.10
2023-04-13T12:24:33.897Z,1.10
2023-04-13T12:29:39.611Z,0.57
2023-04-13T12:34:42.797Z,0.70
2023-04-13T12:39:45.629Z,0.68
2023-04-13T12:44:49.700Z,0.77
2023-04-13T12:49:52.756Z,0.50
2023-04-13T12:54:55.541Z,0.70
2023-04-13T12:59:59.746Z,0.50
2023-04-13T13:05:02.403Z,0.98
2023-04-13T13:10:15.136Z,0.77
2023-04-13T13:15:28.455Z,0.73
2023-04-13T13:20:31.246Z,0.57
2023-04-13T13:25:35.523Z,0.50
2023-04-13T13:30:40.251Z,0.40
2023-04-13T13:35:43.085Z,0.70
2023-04-13T13:40:46.901Z,0.60
2023-04-13T13:45:50.927Z,0.60
2023-04-13T13:50:55.337Z,0.50
2023-04-13T13:55:58.987Z,0.60
2023-04-13T14:01:04.950Z,0.60
2023-04-13T14:06:08.220Z,0.60
2023-04-13T14:11:11.176Z,0.88
2023-04-13T14:16:15.224Z,0.50
2023-04-13T14:21:21.343Z,0.45
2023-04-13T14:26:24.086Z,0.60
2023-04-13T14:31:28.162Z,0.65
2023-04-13T14:36:31.054Z,0.55
2023-04-13T14:41:33.748Z,0.80
2023-04-13T14:46:37.837Z,0.80
2023-04-13T14:51:40.973Z,0.75
2023-04-13T14:56:43.827Z,0.57
2023-04-13T15:01:48.492Z,0.60
2023-04-13T15:06:54.060Z,0.63
2023-04-13T15:11:56.983Z,1.00
2023-04-13T15:17:01.017Z,1.10
2023-04-13T15:22:03.724Z,0.70
2023-04-13T15:27:06.681Z,0.70
2023-04-13T15:32:11.117Z,0.75
2023-04-13T15:37:13.926Z,0.40
2023-04-13T15:42:16.670Z,0.80
2023-04-13T15:47:22.682Z,0.50
2023-04-13T15:52:25.771Z,0.50
2023-04-13T15:57:28.599Z,1.85
2023-04-13T16:02:32.989Z,0.50
2023-04-13T16:07:36.182Z,0.50
2023-04-13T16:12:42.857Z,0.70
2023-04-13T16:17:47.977Z,0.60
2023-04-13T16:22:52.889Z,0.85
2023-04-13T16:27:56.291Z,1.08
2023-04-13T16:33:00.458Z,1.42
2023-04-13T16:38:03.391Z,0.70
2023-04-13T16:43:06.405Z,0.60
2023-04-13T16:48:10.512Z,0.90
2023-04-13T16:53:13.249Z,0.50
2023-04-13T16:58:16.239Z,0.52
2023-04-13T17:03:20.385Z,0.50
2023-04-13T17:08:23.805Z,0.55
2023-04-13T17:13:26.936Z,1.63
2023-04-13T17:18:30.899Z,0.70
2023-04-13T17:23:33.742Z,0.52
2023-04-13T17:28:36.337Z,0.75
2023-04-13T17:33:40.374Z,0.65
2023-04-13T17:38:43.016Z,0.63
2023-04-13T17:43:45.831Z,0.60
2023-04-13T17:48:54.004Z,0.68
2023-04-13T17:53:56.572Z,0.60
2023-04-13T17:58:59.366Z,2.38
2023-04-13T18:04:03.604Z,1.70
2023-04-13T18:09:06.463Z,1.20
2023-04-13T18:14:09.400Z,0.50
2023-04-13T18:19:13.723Z,0.70
2023-04-13T18:24:16.351Z,0.70
2023-04-13T18:29:18.922Z,1.30
2023-04-13T18:34:22.950Z,1.45
2023-04-13T18:39:25.789Z,1.23
2023-04-13T18:44:28.369Z,0.90
2023-04-13T18:49:32.419Z,1.20
2023-04-13T18:54:35.174Z,0.80
2023-04-13T18:59:39.059Z,0.95
2023-04-13T19:04:43.386Z,0.88
2023-04-13T19:09:46.633Z,1.13
2023-04-13T19:14:49.390Z,1.33
2023-04-13T19:19:53.503Z,1.00
2023-04-13T19:24:56.562Z,1.05
2023-04-13T19:29:59.174Z,1.23
2023-04-13T19:35:03.151Z,1.52
2023-04-13T19:40:09.504Z,2.03
2023-04-13T19:45:12.927Z,1.67
2023-04-13T19:50:19.768Z,1.60
2023-04-13T19:55:22.502Z,4.30
2023-04-13T20:00:26.857Z,3.00
2023-04-13T20:05:31.325Z,2.60
2023-04-13T20:10:34.197Z,2.60
2023-04-13T20:15:36.958Z,2.60
2023-04-13T20:20:42.929Z,2.67
2023-04-13T20:25:45.559Z,2.30
2023-04-13T20:30:48.320Z,2.63
2023-04-13T20:35:53.217Z,7.25
2023-04-13T20:40:57.014Z,5.75
2023-04-13T20:46:00.684Z,5.55
2023-04-13T20:51:07.170Z,5.10
2023-04-13T20:56:09.883Z,4.95
2023-04-13T21:01:12.900Z,4.82
2023-04-13T21:06:17.415Z,4.93
2023-04-13T21:11:19.953Z,4.10
2023-04-13T21:16:25.213Z,1.98
2023-04-13T21:21:29.680Z,2.60
2023-04-13T21:26:32.273Z,2.40
2023-04-13T21:31:35.016Z,2.10
2023-04-13T21:41:44.629Z,1.30
2023-04-13T21:46:47.447Z,1.30
2023-04-13T21:51:51.482Z,1.30
2023-04-13T21:56:54.062Z,1.73
2023-04-13T22:01:56.894Z,1.55
2023-04-13T22:07:01.156Z,1.77
2023-04-13T22:12:04.077Z,1.50
2023-04-13T22:17:06.795Z,1.40
2023-04-13T22:22:10.728Z,1.40
2023-04-13T22:27:13.304Z,2.03
2023-04-13T22:32:16.610Z,2.50
2023-04-13T22:37:21.037Z,1.83
2023-04-13T22:42:23.616Z,1.70
2023-04-13T22:47:26.340Z,2.15
2023-04-13T22:52:30.528Z,1.90
2023-04-13T22:57:33.270Z,1.58
2023-04-13T23:02:36.247Z,2.28
2023-04-13T23:07:40.384Z,2.10
2023-04-13T23:12:42.975Z,2.05
2023-04-13T23:17:45.789Z,1.83
2023-04-13T23:22:49.731Z,1.92
2023-04-13T23:27:52.307Z,1.95
2023-04-13T23:32:54.859Z,1.90
2023-04-13T23:37:58.820Z,2.28
2023-04-13T23:43:01.503Z,2.33
2023-04-13T23:48:04.271Z,2.35
2023-04-13T23:53:08.187Z,2.45
2023-04-13T23:58:10.989Z,4.53
